sensor_id;sensor_type;location;lat;lon;timestamp;temperature;humidity
54558;DHT22;40452;50.080;20.040;2022-09-29T04:31:41;19.10;57.60
54558;DHT22;40452;50.080;20.040;2022-09-29T04:34:07;19.80;56.80
54558;DHT22;40452;50.080;20.040;2022-09-29T04:36:32;19.90;56.70
54558;DHT22;40452;50.080;20.040;2022-09-29T04:38:58;19.90;56.50
54558;DHT22;40452;50.080;20.040;2022-09-29T04:41:23;19.90;56.50
54558;DHT22;40452;50.080;20.040;2022-09-29T04:43:49;19.90;56.60
54558;DHT22;40452;50.080;20.040;2022-09-29T04:46:14;20.00;56.80
54558;DHT22;40452;50.080;20.040;2022-09-29T04:48:40;20.00;56.80
54558;DHT22;40452;50.080;20.040;2022-09-29T04:51:05;20.00;56.80
54558;DHT22;40452;50.080;20.040;2022-09-29T04:53:32;20.00;56.80
54558;DHT22;40452;50.080;20.040;2022-09-29T04:55:57;20.00;56.90
54558;DHT22;40452;50.080;20.040;2022-09-29T04:58:23;20.00;57.00
54558;DHT22;40452;50.080;20.040;2022-09-29T05:00:49;20.10;57.30
54558;DHT22;40452;50.080;20.040;2022-09-29T05:03:14;20.10;57.20
54558;DHT22;40452;50.080;20.040;2022-09-29T05:05:40;20.10;57.20
54558;DHT22;40452;50.080;20.040;2022-09-29T05:08:05;20.10;57.70
54558;DHT22;40452;50.080;20.040;2022-09-29T05:10:31;20.10;57.40
54558;DHT22;40452;50.080;20.040;2022-09-29T05:12:56;20.20;57.60
54558;DHT22;40452;50.080;20.040;2022-09-29T05:15:22;20.20;58.10
54558;DHT22;40452;50.080;20.040;2022-09-29T05:17:47;20.20;58.10
54558;DHT22;40452;50.080;20.040;2022-09-29T05:20:13;20.20;58.20
54558;DHT22;40452;50.080;20.040;2022-09-29T05:22:40;20.20;58.30
54558;DHT22;40452;50.080;20.040;2022-09-29T05:25:06;20.20;58.80
54558;DHT22;40452;50.080;20.040;2022-09-29T05:27:34;20.30;58.80
54558;DHT22;40452;50.080;20.040;2022-09-29T05:29:59;20.30;59.10
54558;DHT22;40452;50.080;20.040;2022-09-29T05:32:25;20.30;58.90
54558;DHT22;40452;50.080;20.040;2022-09-29T05:34:50;20.30;58.80
54558;DHT22;40452;50.080;20.040;2022-09-29T05:37:16;20.30;58.40
54558;DHT22;40452;50.080;20.040;2022-09-29T05:39:42;20.30;58.20
54558;DHT22;40452;50.080;20.040;2022-09-29T05:42:10;20.30;58.00
54558;DHT22;40452;50.080;20.040;2022-09-29T05:44:35;20.30;57.90
54558;DHT22;40452;50.080;20.040;2022-09-29T05:47:01;20.40;57.90
54558;DHT22;40452;50.080;20.040;2022-09-29T05:49:26;20.40;57.90
54558;DHT22;40452;50.080;20.040;2022-09-29T05:51:52;20.40;57.90
54558;DHT22;40452;50.080;20.040;2022-09-29T05:54:17;20.40;57.80
54558;DHT22;40452;50.080;20.040;2022-09-29T05:56:43;20.40;57.60
54558;DHT22;40452;50.080;20.040;2022-09-29T05:59:09;20.40;57.60
54558;DHT22;40452;50.080;20.040;2022-09-29T06:01:35;20.40;57.60
54558;DHT22;40452;50.080;20.040;2022-09-29T06:04:01;20.50;57.70
54558;DHT22;40452;50.080;20.040;2022-09-29T06:06:28;20.60;57.30
54558;DHT22;40452;50.080;20.040;2022-09-29T06:08:55;20.50;57.20
54558;DHT22;40452;50.080;20.040;2022-09-29T06:11:24;20.50;57.20
54558;DHT22;40452;50.080;20.040;2022-09-29T06:13:51;20.50;57.10
54558;DHT22;40452;50.080;20.040;2022-09-29T06:16:18;20.50;57.20
54558;DHT22;40452;50.080;20.040;2022-09-29T06:18:45;20.50;57.00
54558;DHT22;40452;50.080;20.040;2022-09-29T06:21:16;20.60;57.10
54558;DHT22;40452;50.080;20.040;2022-09-29T06:23:43;20.60;57.40
54558;DHT22;40452;50.080;20.040;2022-09-29T06:26:11;20.60;58.00
54558;DHT22;40452;50.080;20.040;2022-09-29T06:28:37;20.50;57.80
54558;DHT22;40452;50.080;20.040;2022-09-29T06:31:14;20.50;58.00
54558;DHT22;40452;50.080;20.040;2022-09-29T06:33:40;20.60;58.00
54558;DHT22;40452;50.080;20.040;2022-09-29T06:39:03;20.60;58.10
54558;DHT22;40452;50.080;20.040;2022-09-29T06:41:28;20.60;58.80
54558;DHT22;40452;50.080;20.040;2022-09-29T06:43:54;20.60;59.60
54558;DHT22;40452;50.080;20.040;2022-09-29T06:46:20;20.60;60.00
54558;DHT22;40452;50.080;20.040;2022-09-29T06:48:46;20.60;60.60
54558;DHT22;40452;50.080;20.040;2022-09-29T06:51:12;20.60;60.50
54558;DHT22;40452;50.080;20.040;2022-09-29T06:53:39;20.60;60.90
54558;DHT22;40452;50.080;20.040;2022-09-29T06:56:05;20.60;60.30
54558;DHT22;40452;50.080;20.040;2022-09-29T06:58:31;20.60;60.00
54558;DHT22;40452;50.080;20.040;2022-09-29T07:01:01;20.70;60.00
54558;DHT22;40452;50.080;20.040;2022-09-29T07:03:28;20.60;60.00
54558;DHT22;40452;50.080;20.040;2022-09-29T07:05:54;20.60;60.00
54558;DHT22;40452;50.080;20.040;2022-09-29T07:08:19;20.70;59.90
54558;DHT22;40452;50.080;20.040;2022-09-29T07:10:45;20.70;59.70
54558;DHT22;40452;50.080;20.040;2022-09-29T07:13:11;20.70;59.60
54558;DHT22;40452;50.080;20.040;2022-09-29T07:15:37;20.70;59.40
54558;DHT22;40452;50.080;20.040;2022-09-29T07:18:03;20.70;59.20
54558;DHT22;40452;50.080;20.040;2022-09-29T07:20:29;20.80;59.10
54558;DHT22;40452;50.080;20.040;2022-09-29T07:22:56;20.70;58.20
54558;DHT22;40452;50.080;20.040;2022-09-29T07:25:22;20.70;58.70
54558;DHT22;40452;50.080;20.040;2022-09-29T07:27:49;20.70;58.50
54558;DHT22;40452;50.080;20.040;2022-09-29T07:30:16;20.70;58.50
54558;DHT22;40452;50.080;20.040;2022-09-29T07:32:41;20.70;58.40
54558;DHT22;40452;50.080;20.040;2022-09-29T07:35:07;20.70;58.30
54558;DHT22;40452;50.080;20.040;2022-09-29T07:37:33;20.70;58.20
54558;DHT22;40452;50.080;20.040;2022-09-29T07:39:58;20.70;58.20
54558;DHT22;40452;50.080;20.040;2022-09-29T07:42:24;20.70;58.10
54558;DHT22;40452;50.080;20.040;2022-09-29T07:44:51;20.70;58.10
54558;DHT22;40452;50.080;20.040;2022-09-29T07:47:17;20.70;58.20
54558;DHT22;40452;50.080;20.040;2022-09-29T07:49:43;20.70;58.20
54558;DHT22;40452;50.080;20.040;2022-09-29T07:52:09;20.70;58.10
54558;DHT22;40452;50.080;20.040;2022-09-29T07:54:34;20.70;58.00
54558;DHT22;40452;50.080;20.040;2022-09-29T07:57:00;20.70;57.80
54558;DHT22;40452;50.080;20.040;2022-09-29T07:59:28;20.80;57.80
54558;DHT22;40452;50.080;20.040;2022-09-29T08:01:53;20.70;57.80
54558;DHT22;40452;50.080;20.040;2022-09-29T08:04:20;20.70;57.80
54558;DHT22;40452;50.080;20.040;2022-09-29T08:06:47;20.70;57.70
54558;DHT22;40452;50.080;20.040;2022-09-29T08:09:13;20.80;58.00
54558;DHT22;40452;50.080;20.040;2022-09-29T08:11:40;20.80;58.10
54558;DHT22;40452;50.080;20.040;2022-09-29T08:14:07;20.80;58.10
54558;DHT22;40452;50.080;20.040;2022-09-29T08:16:33;20.80;58.10
54558;DHT22;40452;50.080;20.040;2022-09-29T08:19:00;20.80;58.10
54558;DHT22;40452;50.080;20.040;2022-09-29T08:21:27;20.90;57.70
54558;DHT22;40452;50.080;20.040;2022-09-29T08:23:52;20.80;57.50
54558;DHT22;40452;50.080;20.040;2022-09-29T08:26:20;20.90;57.70
54558;DHT22;40452;50.080;20.040;2022-09-29T08:28:46;20.90;57.60
54558;DHT22;40452;50.080;20.040;2022-09-29T08:31:20;20.90;57.50
54558;DHT22;40452;50.080;20.040;2022-09-29T08:33:49;20.90;57.50
54558;DHT22;40452;50.080;20.040;2022-09-29T08:36:16;20.90;57.40
54558;DHT22;40452;50.080;20.040;2022-09-29T08:38:47;20.90;57.50
54558;DHT22;40452;50.080;20.040;2022-09-29T08:46:58;20.90;57.40
54558;DHT22;40452;50.080;20.040;2022-09-29T08:49:28;20.90;57.30
54558;DHT22;40452;50.080;20.040;2022-09-29T08:52:00;20.90;57.20
54558;DHT22;40452;50.080;20.040;2022-09-29T08:54:34;20.90;57.20
54558;DHT22;40452;50.080;20.040;2022-09-29T08:57:04;20.90;57.30
54558;DHT22;40452;50.080;20.040;2022-09-29T08:59:30;20.90;57.20
54558;DHT22;40452;50.080;20.040;2022-09-29T09:15:39;20.90;56.90
54558;DHT22;40452;50.080;20.040;2022-09-29T09:21:16;20.90;56.90
54558;DHT22;40452;50.080;20.040;2022-09-29T09:23:56;20.90;56.90
54558;DHT22;40452;50.080;20.040;2022-09-29T09:26:31;20.90;56.80
54558;DHT22;40452;50.080;20.040;2022-09-29T09:29:09;20.90;56.90
54558;DHT22;40452;50.080;20.040;2022-09-29T09:32:11;20.90;56.90
54558;DHT22;40452;50.080;20.040;2022-09-29T09:34:45;20.90;56.90
54558;DHT22;40452;50.080;20.040;2022-09-29T09:37:25;20.90;56.80
54558;DHT22;40452;50.080;20.040;2022-09-29T09:40:02;20.90;56.80
54558;DHT22;40452;50.080;20.040;2022-09-29T09:42:32;20.90;56.60
54558;DHT22;40452;50.080;20.040;2022-09-29T09:45:03;21.00;56.70
54558;DHT22;40452;50.080;20.040;2022-09-29T09:47:39;21.00;56.70
54558;DHT22;40452;50.080;20.040;2022-09-29T09:50:15;20.90;56.60
54558;DHT22;40452;50.080;20.040;2022-09-29T09:52:58;20.90;56.50
54558;DHT22;40452;50.080;20.040;2022-09-29T09:55:26;20.90;56.50
54558;DHT22;40452;50.080;20.040;2022-09-29T10:00:43;21.00;56.40
54558;DHT22;40452;50.080;20.040;2022-09-29T10:03:10;21.00;56.30
54558;DHT22;40452;50.080;20.040;2022-09-29T10:05:44;21.00;56.30
54558;DHT22;40452;50.080;20.040;2022-09-29T10:08:14;21.00;56.30
54558;DHT22;40452;50.080;20.040;2022-09-29T10:10:42;21.00;56.30
54558;DHT22;40452;50.080;20.040;2022-09-29T10:13:14;21.00;56.20
54558;DHT22;40452;50.080;20.040;2022-09-29T10:18:29;21.00;56.10
54558;DHT22;40452;50.080;20.040;2022-09-29T10:20:55;21.00;56.20
54558;DHT22;40452;50.080;20.040;2022-09-29T10:23:33;21.00;56.20
54558;DHT22;40452;50.080;20.040;2022-09-29T10:26:10;21.00;57.30
54558;DHT22;40452;50.080;20.040;2022-09-29T10:28:56;21.00;57.40
54558;DHT22;40452;50.080;20.040;2022-09-29T10:31:32;21.00;57.50
54558;DHT22;40452;50.080;20.040;2022-09-29T10:36:51;21.00;57.60
54558;DHT22;40452;50.080;20.040;2022-09-29T10:39:40;21.00;57.40
54558;DHT22;40452;50.080;20.040;2022-09-29T10:42:31;21.00;57.60
54558;DHT22;40452;50.080;20.040;2022-09-29T10:45:20;21.00;57.70
54558;DHT22;40452;50.080;20.040;2022-09-29T10:50:30;21.00;57.50
54558;DHT22;40452;50.080;20.040;2022-09-29T10:52:58;21.10;57.30
54558;DHT22;40452;50.080;20.040;2022-09-29T10:55:28;21.10;57.10
54558;DHT22;40452;50.080;20.040;2022-09-29T10:57:59;21.10;57.40
54558;DHT22;40452;50.080;20.040;2022-09-29T11:00:37;21.10;57.20
54558;DHT22;40452;50.080;20.040;2022-09-29T11:03:13;21.10;56.90
54558;DHT22;40452;50.080;20.040;2022-09-29T11:06:10;21.10;57.00
54558;DHT22;40452;50.080;20.040;2022-09-29T11:08:58;21.10;56.90
54558;DHT22;40452;50.080;20.040;2022-09-29T11:11:31;21.10;56.90
54558;DHT22;40452;50.080;20.040;2022-09-29T11:13:57;21.10;56.70
54558;DHT22;40452;50.080;20.040;2022-09-29T11:16:36;21.10;56.70
54558;DHT22;40452;50.080;20.040;2022-09-29T11:19:13;21.10;56.60
54558;DHT22;40452;50.080;20.040;2022-09-29T11:30:04;21.10;56.40
54558;DHT22;40452;50.080;20.040;2022-09-29T11:33:02;21.00;56.30
54558;DHT22;40452;50.080;20.040;2022-09-29T11:35:49;21.10;56.40
54558;DHT22;40452;50.080;20.040;2022-09-29T11:44:09;21.00;56.10
54558;DHT22;40452;50.080;20.040;2022-09-29T11:46:55;21.00;56.10
54558;DHT22;40452;50.080;20.040;2022-09-29T11:49:36;21.10;56.20
54558;DHT22;40452;50.080;20.040;2022-09-29T11:55:01;21.00;56.10
54558;DHT22;40452;50.080;20.040;2022-09-29T12:03:43;21.10;55.90
54558;DHT22;40452;50.080;20.040;2022-09-29T12:06:47;21.10;55.90
54558;DHT22;40452;50.080;20.040;2022-09-29T12:09:40;21.00;55.90
54558;DHT22;40452;50.080;20.040;2022-09-29T12:12:29;21.10;55.80
54558;DHT22;40452;50.080;20.040;2022-09-29T12:17:49;21.00;57.20
54558;DHT22;40452;50.080;20.040;2022-09-29T12:22:44;21.00;57.60
54558;DHT22;40452;50.080;20.040;2022-09-29T12:25:16;21.00;57.70
54558;DHT22;40452;50.080;20.040;2022-09-29T12:27:44;21.00;57.80
54558;DHT22;40452;50.080;20.040;2022-09-29T12:30:24;21.00;57.70
54558;DHT22;40452;50.080;20.040;2022-09-29T12:35:44;21.00;58.60
54558;DHT22;40452;50.080;20.040;2022-09-29T12:41:03;21.00;58.90
54558;DHT22;40452;50.080;20.040;2022-09-29T12:43:37;21.00;58.80
54558;DHT22;40452;50.080;20.040;2022-09-29T12:46:16;21.00;58.70
54558;DHT22;40452;50.080;20.040;2022-09-29T12:49:16;21.00;58.60
54558;DHT22;40452;50.080;20.040;2022-09-29T12:51:50;21.10;58.30
54558;DHT22;40452;50.080;20.040;2022-09-29T12:55:03;21.10;58.00
54558;DHT22;40452;50.080;20.040;2022-09-29T12:57:14;21.00;58.00
54558;DHT22;40452;50.080;20.040;2022-09-29T12:59:42;21.10;57.90
54558;DHT22;40452;50.080;20.040;2022-09-29T13:02:49;21.10;57.90
54558;DHT22;40452;50.080;20.040;2022-09-29T13:10:34;21.10;57.30
54558;DHT22;40452;50.080;20.040;2022-09-29T13:13:23;21.10;57.30
54558;DHT22;40452;50.080;20.040;2022-09-29T13:18:47;21.10;57.00
54558;DHT22;40452;50.080;20.040;2022-09-29T13:21:30;21.10;57.00
54558;DHT22;40452;50.080;20.040;2022-09-29T13:29:59;21.10;56.70
54558;DHT22;40452;50.080;20.040;2022-09-29T13:32:25;21.10;56.70
54558;DHT22;40452;50.080;20.040;2022-09-29T13:35:00;21.10;56.60
54558;DHT22;40452;50.080;20.040;2022-09-29T13:37:34;21.10;56.50
54558;DHT22;40452;50.080;20.040;2022-09-29T13:40:08;21.10;56.40
54558;DHT22;40452;50.080;20.040;2022-09-29T13:42:43;21.10;56.40
54558;DHT22;40452;50.080;20.040;2022-09-29T13:47:57;21.10;56.30
54558;DHT22;40452;50.080;20.040;2022-09-29T13:50:48;21.10;56.20
54558;DHT22;40452;50.080;20.040;2022-09-29T13:58:56;21.10;56.10
54558;DHT22;40452;50.080;20.040;2022-09-29T14:01:34;21.10;56.10
54558;DHT22;40452;50.080;20.040;2022-09-29T14:04:29;21.10;56.00
54558;DHT22;40452;50.080;20.040;2022-09-29T14:06:58;21.10;56.90
54558;DHT22;40452;50.080;20.040;2022-09-29T14:09:29;21.10;56.80
54558;DHT22;40452;50.080;20.040;2022-09-29T14:11:59;21.10;56.40
54558;DHT22;40452;50.080;20.040;2022-09-29T14:14:32;21.10;56.30
54558;DHT22;40452;50.080;20.040;2022-09-29T14:17:15;21.10;56.20
54558;DHT22;40452;50.080;20.040;2022-09-29T14:23:01;21.10;56.10
54558;DHT22;40452;50.080;20.040;2022-09-29T14:28:06;21.10;56.00
54558;DHT22;40452;50.080;20.040;2022-09-29T14:30:42;21.10;55.90
54558;DHT22;40452;50.080;20.040;2022-09-29T14:33:18;21.10;55.90
54558;DHT22;40452;50.080;20.040;2022-09-29T14:36:08;21.10;55.90
54558;DHT22;40452;50.080;20.040;2022-09-29T14:38:41;21.10;55.90
54558;DHT22;40452;50.080;20.040;2022-09-29T14:43:41;21.10;55.90
54558;DHT22;40452;50.080;20.040;2022-09-29T14:49:38;21.10;55.80
54558;DHT22;40452;50.080;20.040;2022-09-29T14:57:59;21.10;55.70
54558;DHT22;40452;50.080;20.040;2022-09-29T15:00:42;21.10;55.70
54558;DHT22;40452;50.080;20.040;2022-09-29T15:03:15;21.10;55.70
54558;DHT22;40452;50.080;20.040;2022-09-29T15:05:43;21.10;55.60
54558;DHT22;40452;50.080;20.040;2022-09-29T15:08:43;21.10;55.60
54558;DHT22;40452;50.080;20.040;2022-09-29T15:11:27;21.10;55.60
54558;DHT22;40452;50.080;20.040;2022-09-29T15:13:58;21.10;55.50
54558;DHT22;40452;50.080;20.040;2022-09-29T15:16:40;21.10;55.50
54558;DHT22;40452;50.080;20.040;2022-09-29T15:21:58;21.10;55.50
54558;DHT22;40452;50.080;20.040;2022-09-29T15:24:52;21.10;55.40
54558;DHT22;40452;50.080;20.040;2022-09-29T15:27:22;21.10;55.30
54558;DHT22;40452;50.080;20.040;2022-09-29T15:29:52;21.10;55.30
54558;DHT22;40452;50.080;20.040;2022-09-29T15:32:23;21.10;55.30
54558;DHT22;40452;50.080;20.040;2022-09-29T15:35:00;21.10;55.30
54558;DHT22;40452;50.080;20.040;2022-09-29T15:37:26;21.00;55.20
54558;DHT22;40452;50.080;20.040;2022-09-29T15:40:02;21.10;55.10
54558;DHT22;40452;50.080;20.040;2022-09-29T15:42:28;21.10;55.10
54558;DHT22;40452;50.080;20.040;2022-09-29T15:45:01;21.10;55.10
54558;DHT22;40452;50.080;20.040;2022-09-29T15:47:37;21.10;55.10
54558;DHT22;40452;50.080;20.040;2022-09-29T15:50:16;21.10;55.10
54558;DHT22;40452;50.080;20.040;2022-09-29T15:52:43;21.10;55.00
54558;DHT22;40452;50.080;20.040;2022-09-29T15:55:21;21.10;55.00
54558;DHT22;40452;50.080;20.040;2022-09-29T15:57:48;21.10;55.10
54558;DHT22;40452;50.080;20.040;2022-09-29T16:02:47;21.10;55.00
54558;DHT22;40452;50.080;20.040;2022-09-29T16:05:19;21.10;55.50
54558;DHT22;40452;50.080;20.040;2022-09-29T16:10:16;21.00;57.10
54558;DHT22;40452;50.080;20.040;2022-09-29T16:12:48;21.00;57.30
54558;DHT22;40452;50.080;20.040;2022-09-29T16:15:32;21.00;57.30
54558;DHT22;40452;50.080;20.040;2022-09-29T16:18:06;21.10;57.50
54558;DHT22;40452;50.080;20.040;2022-09-29T16:20:34;21.00;57.40
54558;DHT22;40452;50.080;20.040;2022-09-29T16:23:18;21.00;57.50
54558;DHT22;40452;50.080;20.040;2022-09-29T16:25:44;21.00;57.60
54558;DHT22;40452;50.080;20.040;2022-09-29T16:28:26;21.00;57.50
54558;DHT22;40452;50.080;20.040;2022-09-29T16:31:16;21.00;57.50
54558;DHT22;40452;50.080;20.040;2022-09-29T16:33:45;21.00;57.50
54558;DHT22;40452;50.080;20.040;2022-09-29T16:36:17;21.00;57.50
54558;DHT22;40452;50.080;20.040;2022-09-29T16:38:45;21.00;57.40
54558;DHT22;40452;50.080;20.040;2022-09-29T16:41:24;21.00;57.40
54558;DHT22;40452;50.080;20.040;2022-09-29T16:46:31;21.10;57.00
54558;DHT22;40452;50.080;20.040;2022-09-29T16:48:58;21.10;56.70
54558;DHT22;40452;50.080;20.040;2022-09-29T16:51:23;21.10;56.90
54558;DHT22;40452;50.080;20.040;2022-09-29T16:53:50;21.10;56.90
54558;DHT22;40452;50.080;20.040;2022-09-29T16:56:30;21.10;56.90
54558;DHT22;40452;50.080;20.040;2022-09-29T16:59:11;21.10;57.20
54558;DHT22;40452;50.080;20.040;2022-09-29T17:01:38;21.00;57.20
54558;DHT22;40452;50.080;20.040;2022-09-29T17:04:06;21.10;57.10
54558;DHT22;40452;50.080;20.040;2022-09-29T17:06:32;21.10;57.10
54558;DHT22;40452;50.080;20.040;2022-09-29T17:08:58;21.10;56.80
54558;DHT22;40452;50.080;20.040;2022-09-29T17:11:23;21.10;56.80
54558;DHT22;40452;50.080;20.040;2022-09-29T17:13:49;21.10;56.70
54558;DHT22;40452;50.080;20.040;2022-09-29T17:16:15;21.00;56.70
54558;DHT22;40452;50.080;20.040;2022-09-29T17:18:49;21.00;57.20
54558;DHT22;40452;50.080;20.040;2022-09-29T17:21:15;21.00;56.40
54558;DHT22;40452;50.080;20.040;2022-09-29T17:23:40;21.00;56.30
54558;DHT22;40452;50.080;20.040;2022-09-29T17:26:25;21.00;56.10
54558;DHT22;40452;50.080;20.040;2022-09-29T17:29:16;20.90;56.50
54558;DHT22;40452;50.080;20.040;2022-09-29T17:31:41;20.90;55.90
54558;DHT22;40452;50.080;20.040;2022-09-29T17:34:07;20.90;56.00
54558;DHT22;40452;50.080;20.040;2022-09-29T17:36:33;20.90;55.80
54558;DHT22;40452;50.080;20.040;2022-09-29T17:38:58;20.90;56.20
54558;DHT22;40452;50.080;20.040;2022-09-29T17:41:24;21.00;56.30
54558;DHT22;40452;50.080;20.040;2022-09-29T17:43:49;21.00;56.40
54558;DHT22;40452;50.080;20.040;2022-09-29T17:46:16;21.00;56.50
54558;DHT22;40452;50.080;20.040;2022-09-29T17:48:42;21.00;56.50
54558;DHT22;40452;50.080;20.040;2022-09-29T17:51:12;21.00;56.60
54558;DHT22;40452;50.080;20.040;2022-09-29T17:53:38;21.10;56.70
54558;DHT22;40452;50.080;20.040;2022-09-29T17:56:05;21.10;56.50
54558;DHT22;40452;50.080;20.040;2022-09-29T17:58:37;21.10;56.30
54558;DHT22;40452;50.080;20.040;2022-09-29T18:01:03;21.10;56.30
54558;DHT22;40452;50.080;20.040;2022-09-29T18:03:29;21.10;56.30
54558;DHT22;40452;50.080;20.040;2022-09-29T18:05:55;21.10;56.20
54558;DHT22;40452;50.080;20.040;2022-09-29T18:08:22;21.10;56.20
54558;DHT22;40452;50.080;20.040;2022-09-29T18:10:55;21.10;56.00
54558;DHT22;40452;50.080;20.040;2022-09-29T18:13:22;21.10;56.00
54558;DHT22;40452;50.080;20.040;2022-09-29T18:15:48;21.20;56.00
54558;DHT22;40452;50.080;20.040;2022-09-29T18:18:16;21.20;55.90
54558;DHT22;40452;50.080;20.040;2022-09-29T18:20:42;21.20;55.90
54558;DHT22;40452;50.080;20.040;2022-09-29T18:23:09;21.20;55.90
54558;DHT22;40452;50.080;20.040;2022-09-29T18:25:35;21.20;55.80
54558;DHT22;40452;50.080;20.040;2022-09-29T18:28:01;21.20;55.80
54558;DHT22;40452;50.080;20.040;2022-09-29T18:30:30;21.20;55.70
54558;DHT22;40452;50.080;20.040;2022-09-29T18:32:58;21.20;55.70
54558;DHT22;40452;50.080;20.040;2022-09-29T18:35:26;21.20;55.60
54558;DHT22;40452;50.080;20.040;2022-09-29T18:37:52;21.20;55.60
54558;DHT22;40452;50.080;20.040;2022-09-29T18:40:18;21.20;55.50
54558;DHT22;40452;50.080;20.040;2022-09-29T18:42:47;21.20;55.50
54558;DHT22;40452;50.080;20.040;2022-09-29T18:45:15;21.20;55.40
54558;DHT22;40452;50.080;20.040;2022-09-29T18:47:55;21.20;55.40
54558;DHT22;40452;50.080;20.040;2022-09-29T18:50:42;21.20;55.40
54558;DHT22;40452;50.080;20.040;2022-09-29T18:53:17;21.20;55.30
54558;DHT22;40452;50.080;20.040;2022-09-29T18:55:44;21.20;55.20
54558;DHT22;40452;50.080;20.040;2022-09-29T18:58:14;21.20;55.10
54558;DHT22;40452;50.080;20.040;2022-09-29T19:00:42;21.20;55.00
54558;DHT22;40452;50.080;20.040;2022-09-29T19:03:09;21.20;55.00
54558;DHT22;40452;50.080;20.040;2022-09-29T19:05:35;21.20;55.00
54558;DHT22;40452;50.080;20.040;2022-09-29T19:08:04;21.20;55.00
54558;DHT22;40452;50.080;20.040;2022-09-29T19:10:32;21.20;55.10
54558;DHT22;40452;50.080;20.040;2022-09-29T19:12:59;21.20;55.00
54558;DHT22;40452;50.080;20.040;2022-09-29T19:15:27;21.20;55.00
54558;DHT22;40452;50.080;20.040;2022-09-29T19:17:53;21.20;55.00
54558;DHT22;40452;50.080;20.040;2022-09-29T19:20:24;21.20;55.00
54558;DHT22;40452;50.080;20.040;2022-09-29T19:22:51;21.20;54.90
54558;DHT22;40452;50.080;20.040;2022-09-29T19:25:20;21.20;55.00
54558;DHT22;40452;50.080;20.040;2022-09-29T19:27:47;21.20;55.00
54558;DHT22;40452;50.080;20.040;2022-09-29T19:30:15;21.20;55.00
54558;DHT22;40452;50.080;20.040;2022-09-29T19:32:41;21.20;55.00
54558;DHT22;40452;50.080;20.040;2022-09-29T19:35:10;21.20;55.00
54558;DHT22;40452;50.080;20.040;2022-09-29T19:37:36;21.20;55.00
54558;DHT22;40452;50.080;20.040;2022-09-29T19:40:04;21.30;55.20
54558;DHT22;40452;50.080;20.040;2022-09-29T19:42:30;21.20;54.90
54558;DHT22;40452;50.080;20.040;2022-09-29T19:44:56;21.20;54.10
54558;DHT22;40452;50.080;20.040;2022-09-29T19:47:21;21.10;54.00
54558;DHT22;40452;50.080;20.040;2022-09-29T19:49:47;21.00;54.00
54558;DHT22;40452;50.080;20.040;2022-09-29T19:52:12;21.00;53.90
54558;DHT22;40452;50.080;20.040;2022-09-29T19:54:39;20.90;53.80
54558;DHT22;40452;50.080;20.040;2022-09-29T19:57:10;20.90;53.60
54558;DHT22;40452;50.080;20.040;2022-09-29T19:59:38;20.80;54.00
54558;DHT22;40452;50.080;20.040;2022-09-29T20:02:14;20.80;54.30
54558;DHT22;40452;50.080;20.040;2022-09-29T20:04:41;20.80;53.60
54558;DHT22;40452;50.080;20.040;2022-09-29T20:07:07;20.70;53.50
54558;DHT22;40452;50.080;20.040;2022-09-29T20:09:33;20.70;53.50
54558;DHT22;40452;50.080;20.040;2022-09-29T20:11:59;20.70;53.40
54558;DHT22;40452;50.080;20.040;2022-09-29T20:14:25;20.60;53.10
54558;DHT22;40452;50.080;20.040;2022-09-29T20:16:53;20.60;53.20
54558;DHT22;40452;50.080;20.040;2022-09-29T20:19:20;20.60;53.60
54558;DHT22;40452;50.080;20.040;2022-09-29T20:21:51;20.60;53.00
54558;DHT22;40452;50.080;20.040;2022-09-29T20:24:19;20.60;53.10
54558;DHT22;40452;50.080;20.040;2022-09-29T20:26:46;20.60;53.20
54558;DHT22;40452;50.080;20.040;2022-09-29T20:29:14;20.60;53.80
54558;DHT22;40452;50.080;20.040;2022-09-29T20:31:39;20.60;53.70
54558;DHT22;40452;50.080;20.040;2022-09-29T20:34:06;20.60;53.40
54558;DHT22;40452;50.080;20.040;2022-09-29T20:36:33;20.60;53.30
54558;DHT22;40452;50.080;20.040;2022-09-29T20:38:58;20.60;53.40
54558;DHT22;40452;50.080;20.040;2022-09-29T20:41:24;20.60;53.30
54558;DHT22;40452;50.080;20.040;2022-09-29T20:43:51;20.50;53.00
54558;DHT22;40452;50.080;20.040;2022-09-29T20:46:18;20.50;53.00
54558;DHT22;40452;50.080;20.040;2022-09-29T20:48:44;20.50;52.90
54558;DHT22;40452;50.080;20.040;2022-09-29T20:51:12;20.50;52.90
54558;DHT22;40452;50.080;20.040;2022-09-29T20:53:42;20.50;52.80
54558;DHT22;40452;50.080;20.040;2022-09-29T20:56:11;20.50;52.70
54558;DHT22;40452;50.080;20.040;2022-09-29T20:58:40;20.50;52.40
54558;DHT22;40452;50.080;20.040;2022-09-29T21:01:12;20.50;52.80
54558;DHT22;40452;50.080;20.040;2022-09-29T21:03:38;20.50;52.40
54558;DHT22;40452;50.080;20.040;2022-09-29T21:06:04;20.50;52.30
54558;DHT22;40452;50.080;20.040;2022-09-29T21:08:30;20.50;52.40
54558;DHT22;40452;50.080;20.040;2022-09-29T21:11:03;20.40;52.20
54558;DHT22;40452;50.080;20.040;2022-09-29T21:13:30;20.40;52.20
